Dai25myoujinmaru — JL6201 — position and weather

sailwx.info

Track history (hours):
 
Tides and Currents Weather Stations Pressure Air Temp Water Temp Dewpoint Dewpoint Depression Visibility Wind Speed Wind Dir Waves Ship Positions

Dai25myoujinmaru

Last reported at 2015-Jul-06 04:33 UTC. Time now 2015-Jul-06 04:55 UTC.
Position N 35°36' E 139°50'.

Length 88 m; draft 4.9 m.

Type: Tanker. MMSI: 431500272.

Date/timePositionNaut miles runAvg speedWind from/ knotsBaromVisibWave heightAir tempDewpointWater temp
2015-Jul-06 04:33N 35°36' E 139°50'2 2.5
2015-Jul-06 03:33N 35°35' E 139°52'0 0.0
2015-Jul-06 02:33N 35°35' E 139°52'0 0.0
2015-Jul-06 01:33N 35°35' E 139°52'0 0.1
2015-Jul-06 00:33N 35°35' E 139°53'0 0.0
2015-Jul-05 23:33N 35°35' E 139°53'0 0.0
2015-Jul-05 22:33N 35°35' E 139°53'0 0.0
2015-Jul-05 21:33N 35°35' E 139°53'0 0.1
2015-Jul-05 20:33N 35°35' E 139°53'0 0.1
2015-Jul-05 19:33N 35°35' E 139°53'0 0.0
2015-Jul-05 18:33N 35°35' E 139°53'0 0.0
2015-Jul-05 17:33N 35°35' E 139°53'0 0.1
2015-Jul-05 16:33N 35°35' E 139°53'0 0.0
2015-Jul-05 15:33N 35°35' E 139°53'0 0.0
2015-Jul-05 14:33N 35°35' E 139°53'0 0.0
2015-Jul-05 13:33N 35°35' E 139°53'0 0.0
2015-Jul-05 12:33N 35°35' E 139°53'0 0.0
2015-Jul-05 11:33N 35°35' E 139°53'0 0.0
2015-Jul-05 10:33N 35°35' E 139°53'0 0.0
2015-Jul-05 09:33N 35°35' E 139°53'0 0.0
2015-Jul-05 08:33N 35°35' E 139°53'0 0.0
2015-Jul-05 07:33N 35°35' E 139°53'0 0.0
2015-Jul-05 06:33N 35°35' E 139°53'2 2.4
2015-Jul-05 05:33N 35°33' E 139°52'5 4.8
2015-Jul-05 04:33N 35°31' E 139°46'0 0.0
2015-Jul-05 03:33N 35°31' E 139°46'0 0.0
2015-Jul-05 02:33N 35°31' E 139°46'0 0.0
2015-Jul-05 01:33N 35°31' E 139°46'1 1.0
2015-Jul-05 00:33N 35°30' E 139°45'0 0.1
2015-Jul-04 23:33N 35°30' E 139°45'0 0.0
2015-Jul-04 22:33N 35°30' E 139°45'0 0.0
2015-Jul-04 21:33N 35°30' E 139°45'0 0.0
2015-Jul-04 20:33N 35°30' E 139°45'0 0.0
2015-Jul-04 19:33N 35°30' E 139°45'0 0.0
2015-Jul-04 18:33N 35°30' E 139°45'0 0.0
2015-Jul-04 17:33N 35°30' E 139°45'0 0.0
2015-Jul-04 16:33N 35°30' E 139°45'0 0.0
2015-Jul-04 15:33N 35°30' E 139°45'0 0.0
2015-Jul-04 14:33N 35°30' E 139°45'0 0.0
2015-Jul-04 13:33N 35°30' E 139°45'0 0.0
2015-Jul-04 12:33N 35°30' E 139°45'0 0.0
2015-Jul-04 11:33N 35°30' E 139°45'0 0.0
2015-Jul-04 10:33N 35°30' E 139°45'0 0.0
2015-Jul-04 09:33N 35°30' E 139°45'0 0.0
2015-Jul-04 08:33N 35°30' E 139°45'0 0.0
2015-Jul-04 07:33N 35°30' E 139°45'0 0.0
2015-Jul-04 06:33N 35°30' E 139°45'0 0.0
2015-Jul-04 05:33N 35°30' E 139°45'0 0.0
2015-Jul-04 04:33N 35°30' E 139°45'0 0.0
2015-Jul-04 03:33N 35°30' E 139°45'0 0.0
2015-Jul-04 02:33N 35°30' E 139°45'0 0.0
2015-Jul-04 01:33N 35°30' E 139°45'0 0.0
2015-Jul-04 00:33N 35°30' E 139°45'1 1.4
2015-Jul-03 23:33N 35°30' E 139°44'4 3.6
2015-Jul-03 22:33N 35°28' E 139°48'0 0.4
2015-Jul-03 21:33N 35°28' E 139°48'0 0.1
2015-Jul-03 20:33N 35°28' E 139°48'0 0.0
2015-Jul-03 19:33N 35°28' E 139°48'0 0.1
2015-Jul-03 18:33N 35°28' E 139°48'4 4.0
2015-Jul-03 17:33N 35°25' E 139°46'1212.0
2015-Jul-03 16:33N 35°13' E 139°47'1313.0
2015-Jul-03 15:33N 34°60' E 139°43'1410.7
2015-Jul-03 14:14N 34°52' E 139°57'811.5
2015-Jul-03 13:33N 34°56' E 140°05'3811.6
2015-Jul-03 10:14N 35°21' E 140°40'812.0
2015-Jul-03 09:33N 35°28' E 140°46'1212.1
2015-Jul-03 08:32N 35°38' E 140°55'2612.3
2015-Jul-03 06:27N 36°03' E 140°50'5 0.6
2015-Jul-02 21:22N 36°09' E 140°48'1112.5
2015-Jul-02 20:31N 35°58' E 140°52'2711.2
2015-Jul-02 18:08N 35°32' E 140°50'812.2
2015-Jul-02 17:30N 35°26' E 140°44'1611.9
2015-Jul-02 16:11N 35°13' E 140°32'2112.6
2015-Jul-02 14:30N 34°59' E 140°13'  
2015-Jun-29 19:31N 34°52' E 139°27'1313.3
2015-Jun-29 18:33N 34°52' E 139°43'1613.6
2015-Jun-29 17:22N 34°54' E 140°02'3812.9
2015-Jun-29 14:27N 35°18' E 140°37'1112.3
2015-Jun-29 13:33N 35°27' E 140°46'1212.4
2015-Jun-29 12:34N 35°36' E 140°55'1212.1
2015-Jun-29 11:33N 35°48' E 140°58'1312.9
2015-Jun-29 10:33N 36°01' E 140°59'1312.7
2015-Jun-29 09:33N 36°14' E 140°60'  
2015-Jun-26 12:33N 35°26' E 140°44'3812.7
2015-Jun-26 09:33N 34°59' E 140°11'22 9.6
2015-Jun-26 07:12N 34°57' E 139°44'811.6
2015-Jun-26 06:34N 35°04' E 139°44'1212.2
2015-Jun-26 05:33N 35°16' E 139°45'9 9.3
2015-Jun-26 04:34N 35°24' E 139°40'  
Track history (hours):
 
Tides and Currents Weather Stations Pressure Air Temp Water Temp Dewpoint Dewpoint Depression Visibility Wind Speed Wind Dir Waves Ship Positions

Dai25myoujinmaru

Last reported at 2015-Jul-06 04:33 UTC. Time now 2015-Jul-06 04:55 UTC.
Position N 35°36' E 139°50'.

Length 88 m; draft 4.9 m.

Type: Tanker. MMSI: 431500272.

Date/timePositionNaut miles runAvg speedWind from/ knotsBaromVisibWave heightAir tempDewpointWater temp
2015-Jul-06 04:33N 35°36' E 139°50'2 2.5
2015-Jul-06 03:33N 35°35' E 139°52'0 0.0
2015-Jul-06 02:33N 35°35' E 139°52'0 0.0
2015-Jul-06 01:33N 35°35' E 139°52'0 0.1
2015-Jul-06 00:33N 35°35' E 139°53'0 0.0
2015-Jul-05 23:33N 35°35' E 139°53'0 0.0
2015-Jul-05 22:33N 35°35' E 139°53'0 0.0
2015-Jul-05 21:33N 35°35' E 139°53'0 0.1
2015-Jul-05 20:33N 35°35' E 139°53'0 0.1
2015-Jul-05 19:33N 35°35' E 139°53'0 0.0
2015-Jul-05 18:33N 35°35' E 139°53'0 0.0
2015-Jul-05 17:33N 35°35' E 139°53'0 0.1
2015-Jul-05 16:33N 35°35' E 139°53'0 0.0
2015-Jul-05 15:33N 35°35' E 139°53'0 0.0
2015-Jul-05 14:33N 35°35' E 139°53'0 0.0
2015-Jul-05 13:33N 35°35' E 139°53'0 0.0
2015-Jul-05 12:33N 35°35' E 139°53'0 0.0
2015-Jul-05 11:33N 35°35' E 139°53'0 0.0
2015-Jul-05 10:33N 35°35' E 139°53'0 0.0
2015-Jul-05 09:33N 35°35' E 139°53'0 0.0
2015-Jul-05 08:33N 35°35' E 139°53'0 0.0
2015-Jul-05 07:33N 35°35' E 139°53'0 0.0
2015-Jul-05 06:33N 35°35' E 139°53'2 2.4
2015-Jul-05 05:33N 35°33' E 139°52'5 4.8
2015-Jul-05 04:33N 35°31' E 139°46'0 0.0
2015-Jul-05 03:33N 35°31' E 139°46'0 0.0
2015-Jul-05 02:33N 35°31' E 139°46'0 0.0
2015-Jul-05 01:33N 35°31' E 139°46'1 1.0
2015-Jul-05 00:33N 35°30' E 139°45'0 0.1
2015-Jul-04 23:33N 35°30' E 139°45'0 0.0
2015-Jul-04 22:33N 35°30' E 139°45'0 0.0
2015-Jul-04 21:33N 35°30' E 139°45'0 0.0
2015-Jul-04 20:33N 35°30' E 139°45'0 0.0
2015-Jul-04 19:33N 35°30' E 139°45'0 0.0
2015-Jul-04 18:33N 35°30' E 139°45'0 0.0
2015-Jul-04 17:33N 35°30' E 139°45'0 0.0
2015-Jul-04 16:33N 35°30' E 139°45'0 0.0
2015-Jul-04 15:33N 35°30' E 139°45'0 0.0
2015-Jul-04 14:33N 35°30' E 139°45'0 0.0
2015-Jul-04 13:33N 35°30' E 139°45'0 0.0
2015-Jul-04 12:33N 35°30' E 139°45'0 0.0
2015-Jul-04 11:33N 35°30' E 139°45'0 0.0
2015-Jul-04 10:33N 35°30' E 139°45'0 0.0
2015-Jul-04 09:33N 35°30' E 139°45'0 0.0
2015-Jul-04 08:33N 35°30' E 139°45'0 0.0
2015-Jul-04 07:33N 35°30' E 139°45'0 0.0
2015-Jul-04 06:33N 35°30' E 139°45'0 0.0
2015-Jul-04 05:33N 35°30' E 139°45'0 0.0
2015-Jul-04 04:33N 35°30' E 139°45'0 0.0
2015-Jul-04 03:33N 35°30' E 139°45'0 0.0
2015-Jul-04 02:33N 35°30' E 139°45'0 0.0
2015-Jul-04 01:33N 35°30' E 139°45'0 0.0
2015-Jul-04 00:33N 35°30' E 139°45'1 1.4
2015-Jul-03 23:33N 35°30' E 139°44'4 3.6
2015-Jul-03 22:33N 35°28' E 139°48'0 0.4
2015-Jul-03 21:33N 35°28' E 139°48'0 0.1
2015-Jul-03 20:33N 35°28' E 139°48'0 0.0
2015-Jul-03 19:33N 35°28' E 139°48'0 0.1
2015-Jul-03 18:33N 35°28' E 139°48'4 4.0
2015-Jul-03 17:33N 35°25' E 139°46'1212.0
2015-Jul-03 16:33N 35°13' E 139°47'1313.0
2015-Jul-03 15:33N 34°60' E 139°43'1410.7
2015-Jul-03 14:14N 34°52' E 139°57'811.5
2015-Jul-03 13:33N 34°56' E 140°05'3811.6
2015-Jul-03 10:14N 35°21' E 140°40'812.0
2015-Jul-03 09:33N 35°28' E 140°46'1212.1
2015-Jul-03 08:32N 35°38' E 140°55'2612.3
2015-Jul-03 06:27N 36°03' E 140°50'5 0.6
2015-Jul-02 21:22N 36°09' E 140°48'1112.5
2015-Jul-02 20:31N 35°58' E 140°52'2711.2
2015-Jul-02 18:08N 35°32' E 140°50'812.2
2015-Jul-02 17:30N 35°26' E 140°44'1611.9
2015-Jul-02 16:11N 35°13' E 140°32'2112.6
2015-Jul-02 14:30N 34°59' E 140°13'  
2015-Jun-29 19:31N 34°52' E 139°27'1313.3
2015-Jun-29 18:33N 34°52' E 139°43'1613.6
2015-Jun-29 17:22N 34°54' E 140°02'3812.9
2015-Jun-29 14:27N 35°18' E 140°37'1112.3
2015-Jun-29 13:33N 35°27' E 140°46'1212.4
2015-Jun-29 12:34N 35°36' E 140°55'1212.1
2015-Jun-29 11:33N 35°48' E 140°58'1312.9
2015-Jun-29 10:33N 36°01' E 140°59'1312.7
2015-Jun-29 09:33N 36°14' E 140°60'  
2015-Jun-26 12:33N 35°26' E 140°44'3812.7
2015-Jun-26 09:33N 34°59' E 140°11'22 9.6
2015-Jun-26 07:12N 34°57' E 139°44'811.6
2015-Jun-26 06:34N 35°04' E 139°44'1212.2
2015-Jun-26 05:33N 35°16' E 139°45'9 9.3
2015-Jun-26 04:34N 35°24' E 139°40'  

Dump ship's entire track history